sensor_id;sensor_type;location;lat;lon;timestamp;temperature;humidity
33825;DHT22;20127;48.962;8.342;2023-04-25T00:00:11;8.80;99.90
33825;DHT22;20127;48.962;8.342;2023-04-25T00:03:12;8.70;99.90
33825;DHT22;20127;48.962;8.342;2023-04-25T00:06:14;8.70;99.90
33825;DHT22;20127;48.962;8.342;2023-04-25T00:09:16;8.60;99.90
33825;DHT22;20127;48.962;8.342;2023-04-25T00:12:19;8.60;99.90
33825;DHT22;20127;48.962;8.342;2023-04-25T00:15:22;8.60;99.90
33825;DHT22;20127;48.962;8.342;2023-04-25T00:18:24;8.70;99.90
33825;DHT22;20127;48.962;8.342;2023-04-25T00:21:29;8.70;99.90
33825;DHT22;20127;48.962;8.342;2023-04-25T00:24:31;8.70;99.90
33825;DHT22;20127;48.962;8.342;2023-04-25T00:27:34;8.70;99.90
33825;DHT22;20127;48.962;8.342;2023-04-25T00:30:37;8.80;99.90
33825;DHT22;20127;48.962;8.342;2023-04-25T00:33:38;8.80;99.90
33825;DHT22;20127;48.962;8.342;2023-04-25T00:36:40;8.80;99.90
33825;DHT22;20127;48.962;8.342;2023-04-25T00:39:42;8.80;99.90
33825;DHT22;20127;48.962;8.342;2023-04-25T00:42:45;8.80;99.90
33825;DHT22;20127;48.962;8.342;2023-04-25T00:45:48;8.80;99.90
33825;DHT22;20127;48.962;8.342;2023-04-25T00:48:50;8.80;99.90
33825;DHT22;20127;48.962;8.342;2023-04-25T00:51:52;8.80;99.90
33825;DHT22;20127;48.962;8.342;2023-04-25T00:54:53;8.70;99.90
33825;DHT22;20127;48.962;8.342;2023-04-25T00:57:57;8.70;99.90
33825;DHT22;20127;48.962;8.342;2023-04-25T01:00:59;8.70;99.90
33825;DHT22;20127;48.962;8.342;2023-04-25T01:04:02;8.80;99.90
33825;DHT22;20127;48.962;8.342;2023-04-25T01:07:04;8.90;99.90
33825;DHT22;20127;48.962;8.342;2023-04-25T01:10:07;8.90;99.90
33825;DHT22;20127;48.962;8.342;2023-04-25T01:13:10;8.90;99.90
33825;DHT22;20127;48.962;8.342;2023-04-25T01:16:12;8.90;99.90
33825;DHT22;20127;48.962;8.342;2023-04-25T01:19:16;8.80;99.90
33825;DHT22;20127;48.962;8.342;2023-04-25T01:22:19;8.90;99.90
33825;DHT22;20127;48.962;8.342;2023-04-25T01:25:21;8.90;99.90
33825;DHT22;20127;48.962;8.342;2023-04-25T01:28:23;8.90;99.90
33825;DHT22;20127;48.962;8.342;2023-04-25T01:31:25;9.00;99.90
33825;DHT22;20127;48.962;8.342;2023-04-25T01:34:27;9.00;99.90
33825;DHT22;20127;48.962;8.342;2023-04-25T01:37:30;8.90;99.90
33825;DHT22;20127;48.962;8.342;2023-04-25T01:40:33;8.90;99.90
33825;DHT22;20127;48.962;8.342;2023-04-25T01:43:36;8.90;99.90
33825;DHT22;20127;48.962;8.342;2023-04-25T01:46:38;9.00;99.90
33825;DHT22;20127;48.962;8.342;2023-04-25T01:49:39;9.00;99.90
33825;DHT22;20127;48.962;8.342;2023-04-25T01:52:43;9.10;99.90
33825;DHT22;20127;48.962;8.342;2023-04-25T01:55:44;9.10;99.90
33825;DHT22;20127;48.962;8.342;2023-04-25T01:58:46;9.10;99.90
33825;DHT22;20127;48.962;8.342;2023-04-25T02:01:48;9.10;99.90
33825;DHT22;20127;48.962;8.342;2023-04-25T02:04:49;9.20;99.90
33825;DHT22;20127;48.962;8.342;2023-04-25T02:07:52;9.10;99.90
33825;DHT22;20127;48.962;8.342;2023-04-25T02:10:54;9.20;99.90
33825;DHT22;20127;48.962;8.342;2023-04-25T02:13:56;9.20;99.90
33825;DHT22;20127;48.962;8.342;2023-04-25T02:16:57;9.20;99.90
33825;DHT22;20127;48.962;8.342;2023-04-25T02:19:59;9.20;99.90
33825;DHT22;20127;48.962;8.342;2023-04-25T02:23:02;9.30;99.90
33825;DHT22;20127;48.962;8.342;2023-04-25T02:26:04;9.30;99.90
33825;DHT22;20127;48.962;8.342;2023-04-25T02:29:06;9.30;99.90
33825;DHT22;20127;48.962;8.342;2023-04-25T02:32:08;9.30;99.90
33825;DHT22;20127;48.962;8.342;2023-04-25T02:35:10;9.30;99.90
33825;DHT22;20127;48.962;8.342;2023-04-25T02:38:13;9.40;99.90
33825;DHT22;20127;48.962;8.342;2023-04-25T02:41:15;9.40;99.90
33825;DHT22;20127;48.962;8.342;2023-04-25T02:44:16;9.40;99.90
33825;DHT22;20127;48.962;8.342;2023-04-25T02:47:18;9.40;99.90
33825;DHT22;20127;48.962;8.342;2023-04-25T02:50:20;9.40;99.90
33825;DHT22;20127;48.962;8.342;2023-04-25T02:53:23;9.50;99.90
33825;DHT22;20127;48.962;8.342;2023-04-25T02:56:24;9.40;99.90
33825;DHT22;20127;48.962;8.342;2023-04-25T02:59:27;9.40;99.90
33825;DHT22;20127;48.962;8.342;2023-04-25T03:02:28;9.40;99.90
33825;DHT22;20127;48.962;8.342;2023-04-25T03:05:30;9.40;99.90
33825;DHT22;20127;48.962;8.342;2023-04-25T03:08:33;9.40;99.90
33825;DHT22;20127;48.962;8.342;2023-04-25T03:11:35;9.40;99.90
33825;DHT22;20127;48.962;8.342;2023-04-25T03:14:36;9.30;99.90
33825;DHT22;20127;48.962;8.342;2023-04-25T03:17:38;9.30;99.90
33825;DHT22;20127;48.962;8.342;2023-04-25T03:20:40;9.30;99.90
33825;DHT22;20127;48.962;8.342;2023-04-25T03:23:44;9.30;99.90
33825;DHT22;20127;48.962;8.342;2023-04-25T03:26:46;9.30;99.90
33825;DHT22;20127;48.962;8.342;2023-04-25T03:29:47;9.30;99.90
33825;DHT22;20127;48.962;8.342;2023-04-25T03:32:49;9.30;99.90
33825;DHT22;20127;48.962;8.342;2023-04-25T03:35:51;9.30;99.90
33825;DHT22;20127;48.962;8.342;2023-04-25T03:38:54;9.20;99.90
33825;DHT22;20127;48.962;8.342;2023-04-25T03:41:56;9.20;99.90
33825;DHT22;20127;48.962;8.342;2023-04-25T03:44:58;9.20;99.90
33825;DHT22;20127;48.962;8.342;2023-04-25T03:47:59;9.20;99.90
33825;DHT22;20127;48.962;8.342;2023-04-25T03:51:01;9.10;99.90
33825;DHT22;20127;48.962;8.342;2023-04-25T03:54:04;9.10;99.90
33825;DHT22;20127;48.962;8.342;2023-04-25T03:57:06;9.10;99.90
33825;DHT22;20127;48.962;8.342;2023-04-25T04:00:08;9.10;99.90
33825;DHT22;20127;48.962;8.342;2023-04-25T04:03:10;9.10;99.90
33825;DHT22;20127;48.962;8.342;2023-04-25T04:06:12;9.00;99.90
33825;DHT22;20127;48.962;8.342;2023-04-25T04:09:17;9.00;99.90
33825;DHT22;20127;48.962;8.342;2023-04-25T04:12:19;9.00;99.90
33825;DHT22;20127;48.962;8.342;2023-04-25T04:15:21;9.00;99.90
33825;DHT22;20127;48.962;8.342;2023-04-25T04:18:23;9.00;99.90
33825;DHT22;20127;48.962;8.342;2023-04-25T04:21:25;9.00;99.90
33825;DHT22;20127;48.962;8.342;2023-04-25T04:24:29;8.90;99.90
33825;DHT22;20127;48.962;8.342;2023-04-25T04:27:30;8.90;99.90
33825;DHT22;20127;48.962;8.342;2023-04-25T04:30:32;8.80;99.90
33825;DHT22;20127;48.962;8.342;2023-04-25T04:33:36;8.80;99.90
33825;DHT22;20127;48.962;8.342;2023-04-25T04:36:38;8.80;99.90
33825;DHT22;20127;48.962;8.342;2023-04-25T04:39:43;8.80;99.90
33825;DHT22;20127;48.962;8.342;2023-04-25T04:42:45;8.80;99.90
33825;DHT22;20127;48.962;8.342;2023-04-25T04:45:46;8.80;99.90
33825;DHT22;20127;48.962;8.342;2023-04-25T04:48:49;8.80;99.90
33825;DHT22;20127;48.962;8.342;2023-04-25T04:51:52;8.70;99.90
33825;DHT22;20127;48.962;8.342;2023-04-25T04:54:56;8.80;99.90
33825;DHT22;20127;48.962;8.342;2023-04-25T04:57:58;8.80;99.90
33825;DHT22;20127;48.962;8.342;2023-04-25T05:00:59;8.80;99.90
33825;DHT22;20127;48.962;8.342;2023-04-25T05:04:01;8.90;99.90
33825;DHT22;20127;48.962;8.342;2023-04-25T05:07:03;8.90;99.90
33825;DHT22;20127;48.962;8.342;2023-04-25T05:10:08;8.80;99.90
33825;DHT22;20127;48.962;8.342;2023-04-25T05:13:09;8.90;99.90
33825;DHT22;20127;48.962;8.342;2023-04-25T05:16:11;8.90;99.90
33825;DHT22;20127;48.962;8.342;2023-04-25T05:19:13;8.90;99.90
33825;DHT22;20127;48.962;8.342;2023-04-25T05:22:15;8.90;99.90
33825;DHT22;20127;48.962;8.342;2023-04-25T05:25:18;8.90;99.90
33825;DHT22;20127;48.962;8.342;2023-04-25T05:28:19;8.90;99.90
33825;DHT22;20127;48.962;8.342;2023-04-25T05:31:21;9.00;99.90
33825;DHT22;20127;48.962;8.342;2023-04-25T05:34:23;9.00;99.90
33825;DHT22;20127;48.962;8.342;2023-04-25T05:37:25;9.10;99.90
33825;DHT22;20127;48.962;8.342;2023-04-25T05:40:28;9.20;99.90
33825;DHT22;20127;48.962;8.342;2023-04-25T05:43:30;9.30;99.90
33825;DHT22;20127;48.962;8.342;2023-04-25T05:46:32;9.50;99.90
33825;DHT22;20127;48.962;8.342;2023-04-25T05:49:34;9.50;99.90
33825;DHT22;20127;48.962;8.342;2023-04-25T05:52:35;9.60;99.90
33825;DHT22;20127;48.962;8.342;2023-04-25T05:55:38;9.70;99.90
33825;DHT22;20127;48.962;8.342;2023-04-25T05:58:40;9.70;99.90
33825;DHT22;20127;48.962;8.342;2023-04-25T06:01:42;9.70;99.90
33825;DHT22;20127;48.962;8.342;2023-04-25T06:04:43;9.70;99.90
33825;DHT22;20127;48.962;8.342;2023-04-25T06:07:45;9.70;99.90
33825;DHT22;20127;48.962;8.342;2023-04-25T06:10:48;9.80;99.90
33825;DHT22;20127;48.962;8.342;2023-04-25T06:13:50;9.80;99.90
33825;DHT22;20127;48.962;8.342;2023-04-25T06:16:52;9.80;99.90
33825;DHT22;20127;48.962;8.342;2023-04-25T06:19:53;9.80;99.90
33825;DHT22;20127;48.962;8.342;2023-04-25T06:22:55;9.80;99.90
33825;DHT22;20127;48.962;8.342;2023-04-25T06:25:58;9.70;99.90
33825;DHT22;20127;48.962;8.342;2023-04-25T06:29:00;9.70;99.90
33825;DHT22;20127;48.962;8.342;2023-04-25T06:32:02;9.70;99.90
33825;DHT22;20127;48.962;8.342;2023-04-25T06:35:04;9.70;99.90
33825;DHT22;20127;48.962;8.342;2023-04-25T06:38:06;9.70;99.90
33825;DHT22;20127;48.962;8.342;2023-04-25T06:41:09;9.70;99.90
33825;DHT22;20127;48.962;8.342;2023-04-25T06:44:11;9.70;99.90
33825;DHT22;20127;48.962;8.342;2023-04-25T06:47:13;9.70;99.90
33825;DHT22;20127;48.962;8.342;2023-04-25T06:50:15;9.70;99.90
33825;DHT22;20127;48.962;8.342;2023-04-25T06:53:16;9.70;99.90
33825;DHT22;20127;48.962;8.342;2023-04-25T06:56:20;9.80;99.90
33825;DHT22;20127;48.962;8.342;2023-04-25T06:59:22;9.80;99.90
33825;DHT22;20127;48.962;8.342;2023-04-25T07:02:24;9.80;99.90
33825;DHT22;20127;48.962;8.342;2023-04-25T07:05:25;9.80;99.90
33825;DHT22;20127;48.962;8.342;2023-04-25T07:08:28;9.80;99.90
33825;DHT22;20127;48.962;8.342;2023-04-25T07:11:31;9.80;99.90
33825;DHT22;20127;48.962;8.342;2023-04-25T07:14:33;9.80;99.90
33825;DHT22;20127;48.962;8.342;2023-04-25T07:17:35;9.80;99.90
33825;DHT22;20127;48.962;8.342;2023-04-25T07:20:36;9.70;99.90
33825;DHT22;20127;48.962;8.342;2023-04-25T07:23:38;9.70;99.90
33825;DHT22;20127;48.962;8.342;2023-04-25T07:26:42;9.70;99.90
33825;DHT22;20127;48.962;8.342;2023-04-25T07:29:44;9.70;99.90
33825;DHT22;20127;48.962;8.342;2023-04-25T07:32:45;9.70;99.90
33825;DHT22;20127;48.962;8.342;2023-04-25T07:35:47;9.70;99.90
33825;DHT22;20127;48.962;8.342;2023-04-25T07:38:49;9.70;99.90
33825;DHT22;20127;48.962;8.342;2023-04-25T07:41:52;9.60;99.90
33825;DHT22;20127;48.962;8.342;2023-04-25T07:44:53;9.60;99.90
33825;DHT22;20127;48.962;8.342;2023-04-25T07:47:55;9.60;99.90
33825;DHT22;20127;48.962;8.342;2023-04-25T07:50:57;9.50;99.90
33825;DHT22;20127;48.962;8.342;2023-04-25T07:53:59;9.50;99.90
33825;DHT22;20127;48.962;8.342;2023-04-25T07:57:02;9.40;99.90
33825;DHT22;20127;48.962;8.342;2023-04-25T08:00:05;9.40;99.90
33825;DHT22;20127;48.962;8.342;2023-04-25T08:03:09;9.30;99.90
33825;DHT22;20127;48.962;8.342;2023-04-25T08:06:12;9.30;99.90
33825;DHT22;20127;48.962;8.342;2023-04-25T08:09:13;9.30;99.90
33825;DHT22;20127;48.962;8.342;2023-04-25T08:12:17;9.30;99.90
33825;DHT22;20127;48.962;8.342;2023-04-25T08:15:19;9.30;99.90
33825;DHT22;20127;48.962;8.342;2023-04-25T08:18:20;9.30;99.90
33825;DHT22;20127;48.962;8.342;2023-04-25T08:21:22;9.30;99.90
33825;DHT22;20127;48.962;8.342;2023-04-25T08:24:24;9.30;99.90
33825;DHT22;20127;48.962;8.342;2023-04-25T08:27:27;9.30;99.90
33825;DHT22;20127;48.962;8.342;2023-04-25T08:30:29;9.40;99.90
33825;DHT22;20127;48.962;8.342;2023-04-25T08:33:31;9.30;99.90
33825;DHT22;20127;48.962;8.342;2023-04-25T08:36:33;9.30;99.90
33825;DHT22;20127;48.962;8.342;2023-04-25T08:39:34;9.20;99.90
33825;DHT22;20127;48.962;8.342;2023-04-25T08:42:38;9.20;99.90
33825;DHT22;20127;48.962;8.342;2023-04-25T08:45:42;9.20;99.90
33825;DHT22;20127;48.962;8.342;2023-04-25T08:48:45;9.20;99.90
33825;DHT22;20127;48.962;8.342;2023-04-25T08:51:47;9.20;99.90
33825;DHT22;20127;48.962;8.342;2023-04-25T08:54:51;9.20;99.90
33825;DHT22;20127;48.962;8.342;2023-04-25T08:57:56;9.30;99.90
33825;DHT22;20127;48.962;8.342;2023-04-25T09:00:59;9.30;99.90
33825;DHT22;20127;48.962;8.342;2023-04-25T09:04:01;9.40;99.90
33825;DHT22;20127;48.962;8.342;2023-04-25T09:07:03;9.50;99.90
33825;DHT22;20127;48.962;8.342;2023-04-25T09:10:05;9.50;99.90
33825;DHT22;20127;48.962;8.342;2023-04-25T09:13:10;9.50;99.90
33825;DHT22;20127;48.962;8.342;2023-04-25T09:16:13;9.60;99.90
33825;DHT22;20127;48.962;8.342;2023-04-25T09:19:21;9.60;99.90
33825;DHT22;20127;48.962;8.342;2023-04-25T09:22:23;9.60;99.90
33825;DHT22;20127;48.962;8.342;2023-04-25T09:25:25;9.70;99.90
33825;DHT22;20127;48.962;8.342;2023-04-25T09:28:28;9.70;99.90
33825;DHT22;20127;48.962;8.342;2023-04-25T09:31:33;9.80;99.90
33825;DHT22;20127;48.962;8.342;2023-04-25T09:34:39;9.80;99.90
33825;DHT22;20127;48.962;8.342;2023-04-25T09:37:41;9.80;99.90
33825;DHT22;20127;48.962;8.342;2023-04-25T09:40:43;9.80;99.90
33825;DHT22;20127;48.962;8.342;2023-04-25T09:43:49;9.90;99.90
33825;DHT22;20127;48.962;8.342;2023-04-25T09:46:50;9.90;99.90
33825;DHT22;20127;48.962;8.342;2023-04-25T09:49:54;10.00;99.90
33825;DHT22;20127;48.962;8.342;2023-04-25T09:53:02;10.00;99.90
33825;DHT22;20127;48.962;8.342;2023-04-25T09:56:06;10.00;99.90
33825;DHT22;20127;48.962;8.342;2023-04-25T09:59:09;10.10;99.90
33825;DHT22;20127;48.962;8.342;2023-04-25T10:02:16;10.10;99.90
33825;DHT22;20127;48.962;8.342;2023-04-25T10:05:19;10.10;99.90
33825;DHT22;20127;48.962;8.342;2023-04-25T10:08:22;9.90;99.90
33825;DHT22;20127;48.962;8.342;2023-04-25T10:11:32;9.60;99.90
33825;DHT22;20127;48.962;8.342;2023-04-25T10:14:35;9.30;99.90
33825;DHT22;20127;48.962;8.342;2023-04-25T10:17:38;9.10;99.90
33825;DHT22;20127;48.962;8.342;2023-04-25T10:20:40;9.00;99.90
33825;DHT22;20127;48.962;8.342;2023-04-25T10:23:42;8.80;99.90
33825;DHT22;20127;48.962;8.342;2023-04-25T10:26:44;8.70;99.90
33825;DHT22;20127;48.962;8.342;2023-04-25T10:30:00;8.60;99.90
33825;DHT22;20127;48.962;8.342;2023-04-25T10:33:16;8.50;99.90
33825;DHT22;20127;48.962;8.342;2023-04-25T10:36:19;8.50;99.90
33825;DHT22;20127;48.962;8.342;2023-04-25T10:39:24;8.60;99.90
33825;DHT22;20127;48.962;8.342;2023-04-25T10:42:26;8.60;99.90
33825;DHT22;20127;48.962;8.342;2023-04-25T10:45:29;8.70;99.90
33825;DHT22;20127;48.962;8.342;2023-04-25T10:48:31;8.70;99.90
33825;DHT22;20127;48.962;8.342;2023-04-25T10:51:34;8.70;99.90
33825;DHT22;20127;48.962;8.342;2023-04-25T10:54:40;8.70;99.90
33825;DHT22;20127;48.962;8.342;2023-04-25T10:57:43;8.60;99.90
33825;DHT22;20127;48.962;8.342;2023-04-25T11:00:48;8.50;99.90
33825;DHT22;20127;48.962;8.342;2023-04-25T11:03:57;8.40;99.90
33825;DHT22;20127;48.962;8.342;2023-04-25T11:07:07;8.30;99.90
33825;DHT22;20127;48.962;8.342;2023-04-25T11:10:11;8.30;99.90
33825;DHT22;20127;48.962;8.342;2023-04-25T11:13:12;8.30;99.90
33825;DHT22;20127;48.962;8.342;2023-04-25T11:16:16;8.20;99.90
33825;DHT22;20127;48.962;8.342;2023-04-25T11:19:19;8.10;99.90
33825;DHT22;20127;48.962;8.342;2023-04-25T11:22:21;8.00;99.90
33825;DHT22;20127;48.962;8.342;2023-04-25T11:25:24;8.10;99.90
33825;DHT22;20127;48.962;8.342;2023-04-25T11:28:27;8.10;99.90
33825;DHT22;20127;48.962;8.342;2023-04-25T11:31:30;8.20;99.90
33825;DHT22;20127;48.962;8.342;2023-04-25T11:34:33;8.20;99.90
33825;DHT22;20127;48.962;8.342;2023-04-25T11:37:34;8.20;99.90
33825;DHT22;20127;48.962;8.342;2023-04-25T11:40:36;8.20;99.90
33825;DHT22;20127;48.962;8.342;2023-04-25T11:43:38;8.30;99.90
33825;DHT22;20127;48.962;8.342;2023-04-25T11:46:42;8.40;99.90
33825;DHT22;20127;48.962;8.342;2023-04-25T11:49:43;8.40;99.90
33825;DHT22;20127;48.962;8.342;2023-04-25T11:52:46;8.40;99.90
33825;DHT22;20127;48.962;8.342;2023-04-25T11:55:48;8.50;99.90
33825;DHT22;20127;48.962;8.342;2023-04-25T11:58:57;8.50;99.90
33825;DHT22;20127;48.962;8.342;2023-04-25T12:02:01;8.50;99.90
33825;DHT22;20127;48.962;8.342;2023-04-25T12:05:06;8.50;99.90
33825;DHT22;20127;48.962;8.342;2023-04-25T12:08:12;8.50;99.90
33825;DHT22;20127;48.962;8.342;2023-04-25T12:11:20;8.50;99.90
33825;DHT22;20127;48.962;8.342;2023-04-25T12:14:23;8.60;99.90
33825;DHT22;20127;48.962;8.342;2023-04-25T12:17:28;8.70;99.90
33825;DHT22;20127;48.962;8.342;2023-04-25T12:20:31;8.90;99.90
33825;DHT22;20127;48.962;8.342;2023-04-25T12:23:33;9.00;99.90
33825;DHT22;20127;48.962;8.342;2023-04-25T12:26:46;9.10;99.90
33825;DHT22;20127;48.962;8.342;2023-04-25T12:29:51;9.20;99.90
33825;DHT22;20127;48.962;8.342;2023-04-25T12:32:55;9.30;99.90
33825;DHT22;20127;48.962;8.342;2023-04-25T12:35:57;9.50;99.90
33825;DHT22;20127;48.962;8.342;2023-04-25T12:38:59;9.50;99.90
33825;DHT22;20127;48.962;8.342;2023-04-25T12:42:04;9.70;99.90
33825;DHT22;20127;48.962;8.342;2023-04-25T12:45:08;9.80;99.90
33825;DHT22;20127;48.962;8.342;2023-04-25T12:48:11;10.00;99.90
33825;DHT22;20127;48.962;8.342;2023-04-25T12:51:13;10.10;99.90
33825;DHT22;20127;48.962;8.342;2023-04-25T12:54:15;10.00;99.90
33825;DHT22;20127;48.962;8.342;2023-04-25T12:57:16;10.00;99.90
33825;DHT22;20127;48.962;8.342;2023-04-25T13:00:18;10.00;99.90
33825;DHT22;20127;48.962;8.342;2023-04-25T13:03:22;10.00;99.90
33825;DHT22;20127;48.962;8.342;2023-04-25T13:06:24;10.00;99.90
33825;DHT22;20127;48.962;8.342;2023-04-25T13:09:26;9.90;99.90
33825;DHT22;20127;48.962;8.342;2023-04-25T13:12:28;10.00;99.90
33825;DHT22;20127;48.962;8.342;2023-04-25T13:15:31;10.10;99.90
33825;DHT22;20127;48.962;8.342;2023-04-25T13:18:34;10.20;99.90
33825;DHT22;20127;48.962;8.342;2023-04-25T13:21:36;10.30;99.90
33825;DHT22;20127;48.962;8.342;2023-04-25T13:24:37;10.60;99.90
33825;DHT22;20127;48.962;8.342;2023-04-25T13:27:39;10.70;99.90
33825;DHT22;20127;48.962;8.342;2023-04-25T13:30:42;10.70;99.90
33825;DHT22;20127;48.962;8.342;2023-04-25T13:33:45;10.90;99.90
33825;DHT22;20127;48.962;8.342;2023-04-25T13:36:47;11.20;99.90
33825;DHT22;20127;48.962;8.342;2023-04-25T13:39:49;11.50;99.90
33825;DHT22;20127;48.962;8.342;2023-04-25T13:42:51;11.90;99.90
33825;DHT22;20127;48.962;8.342;2023-04-25T13:45:52;12.10;99.90
33825;DHT22;20127;48.962;8.342;2023-04-25T13:48:56;12.50;99.90
33825;DHT22;20127;48.962;8.342;2023-04-25T13:51:57;13.00;99.90
33825;DHT22;20127;48.962;8.342;2023-04-25T13:54:59;13.40;99.90
33825;DHT22;20127;48.962;8.342;2023-04-25T13:58:04;13.70;99.90
33825;DHT22;20127;48.962;8.342;2023-04-25T14:01:07;13.80;99.90
33825;DHT22;20127;48.962;8.342;2023-04-25T14:04:10;13.90;99.90
33825;DHT22;20127;48.962;8.342;2023-04-25T14:07:13;13.90;99.90
33825;DHT22;20127;48.962;8.342;2023-04-25T14:10:16;13.90;99.90
33825;DHT22;20127;48.962;8.342;2023-04-25T14:13:18;14.00;99.90
33825;DHT22;20127;48.962;8.342;2023-04-25T14:16:20;14.00;99.90
33825;DHT22;20127;48.962;8.342;2023-04-25T14:19:24;14.10;99.90
33825;DHT22;20127;48.962;8.342;2023-04-25T14:22:26;14.30;99.90
33825;DHT22;20127;48.962;8.342;2023-04-25T14:25:28;14.40;99.90
33825;DHT22;20127;48.962;8.342;2023-04-25T14:28:31;14.80;99.90
33825;DHT22;20127;48.962;8.342;2023-04-25T14:31:33;15.00;99.90
33825;DHT22;20127;48.962;8.342;2023-04-25T14:34:36;15.20;99.90
33825;DHT22;20127;48.962;8.342;2023-04-25T14:37:38;15.20;99.90
33825;DHT22;20127;48.962;8.342;2023-04-25T14:40:39;15.20;99.90
33825;DHT22;20127;48.962;8.342;2023-04-25T14:43:41;15.10;99.90
33825;DHT22;20127;48.962;8.342;2023-04-25T14:46:43;15.00;99.90
33825;DHT22;20127;48.962;8.342;2023-04-25T14:49:46;14.90;99.90
33825;DHT22;20127;48.962;8.342;2023-04-25T14:52:54;14.70;99.90
33825;DHT22;20127;48.962;8.342;2023-04-25T14:55:59;14.40;99.90
33825;DHT22;20127;48.962;8.342;2023-04-25T14:59:00;14.20;99.90
33825;DHT22;20127;48.962;8.342;2023-04-25T15:02:02;14.00;99.90
33825;DHT22;20127;48.962;8.342;2023-04-25T15:05:06;13.80;99.90
33825;DHT22;20127;48.962;8.342;2023-04-25T15:08:08;13.60;99.90
33825;DHT22;20127;48.962;8.342;2023-04-25T15:11:10;13.40;99.90
33825;DHT22;20127;48.962;8.342;2023-04-25T15:14:12;13.20;99.90
33825;DHT22;20127;48.962;8.342;2023-04-25T15:17:14;13.00;99.90
33825;DHT22;20127;48.962;8.342;2023-04-25T15:20:17;12.90;99.90
33825;DHT22;20127;48.962;8.342;2023-04-25T15:23:19;12.80;99.90
33825;DHT22;20127;48.962;8.342;2023-04-25T15:26:21;12.70;99.90
33825;DHT22;20127;48.962;8.342;2023-04-25T15:29:23;12.60;99.90
33825;DHT22;20127;48.962;8.342;2023-04-25T15:32:25;12.40;99.90
33825;DHT22;20127;48.962;8.342;2023-04-25T15:39:21;11.90;99.90
33825;DHT22;20127;48.962;8.342;2023-04-25T15:42:23;11.60;99.90
33825;DHT22;20127;48.962;8.342;2023-04-25T15:45:25;11.10;99.90
33825;DHT22;20127;48.962;8.342;2023-04-25T15:48:27;10.60;99.90
33825;DHT22;20127;48.962;8.342;2023-04-25T15:51:35;10.20;99.90
33825;DHT22;20127;48.962;8.342;2023-04-25T15:54:52;9.80;99.90
33825;DHT22;20127;48.962;8.342;2023-04-25T15:57:54;9.60;99.90
33825;DHT22;20127;48.962;8.342;2023-04-25T16:00:56;9.50;99.90
33825;DHT22;20127;48.962;8.342;2023-04-25T16:03:57;9.40;99.90
33825;DHT22;20127;48.962;8.342;2023-04-25T16:06:59;9.30;99.90
33825;DHT22;20127;48.962;8.342;2023-04-25T16:10:03;9.30;99.90
33825;DHT22;20127;48.962;8.342;2023-04-25T16:13:04;9.40;99.90
33825;DHT22;20127;48.962;8.342;2023-04-25T16:16:06;9.40;99.90
33825;DHT22;20127;48.962;8.342;2023-04-25T16:19:08;9.40;99.90
33825;DHT22;20127;48.962;8.342;2023-04-25T16:22:10;9.50;99.90
33825;DHT22;20127;48.962;8.342;2023-04-25T16:25:16;9.60;99.90
33825;DHT22;20127;48.962;8.342;2023-04-25T16:28:18;9.60;99.90
33825;DHT22;20127;48.962;8.342;2023-04-25T16:31:20;9.70;99.90
33825;DHT22;20127;48.962;8.342;2023-04-25T16:34:21;9.80;99.90
33825;DHT22;20127;48.962;8.342;2023-04-25T16:37:23;9.80;99.90
33825;DHT22;20127;48.962;8.342;2023-04-25T16:40:27;9.90;99.90
33825;DHT22;20127;48.962;8.342;2023-04-25T16:43:28;9.80;99.90
33825;DHT22;20127;48.962;8.342;2023-04-25T16:46:31;9.80;99.90
33825;DHT22;20127;48.962;8.342;2023-04-25T16:49:33;9.80;99.90
33825;DHT22;20127;48.962;8.342;2023-04-25T16:52:34;9.80;99.90
33825;DHT22;20127;48.962;8.342;2023-04-25T16:55:37;9.70;99.90
33825;DHT22;20127;48.962;8.342;2023-04-25T16:58:39;9.70;99.90
33825;DHT22;20127;48.962;8.342;2023-04-25T17:01:41;9.50;99.90
33825;DHT22;20127;48.962;8.342;2023-04-25T17:04:42;9.50;99.90
33825;DHT22;20127;48.962;8.342;2023-04-25T17:07:44;9.50;99.90
33825;DHT22;20127;48.962;8.342;2023-04-25T17:10:47;9.50;99.90
33825;DHT22;20127;48.962;8.342;2023-04-25T17:13:50;9.60;99.90
33825;DHT22;20127;48.962;8.342;2023-04-25T17:16:51;9.50;99.90
33825;DHT22;20127;48.962;8.342;2023-04-25T17:19:53;9.40;99.90
33825;DHT22;20127;48.962;8.342;2023-04-25T17:22:55;9.40;99.90
33825;DHT22;20127;48.962;8.342;2023-04-25T17:25:58;9.30;99.90
33825;DHT22;20127;48.962;8.342;2023-04-25T17:29:00;9.30;99.90
33825;DHT22;20127;48.962;8.342;2023-04-25T17:32:02;9.40;99.90
33825;DHT22;20127;48.962;8.342;2023-04-25T17:35:05;9.40;99.90
33825;DHT22;20127;48.962;8.342;2023-04-25T17:38:06;9.40;99.90
33825;DHT22;20127;48.962;8.342;2023-04-25T17:41:10;9.30;99.90
33825;DHT22;20127;48.962;8.342;2023-04-25T17:44:12;9.30;99.90
33825;DHT22;20127;48.962;8.342;2023-04-25T17:47:14;9.20;99.90
33825;DHT22;20127;48.962;8.342;2023-04-25T17:50:16;9.20;99.90
33825;DHT22;20127;48.962;8.342;2023-04-25T17:53:18;9.10;99.90
33825;DHT22;20127;48.962;8.342;2023-04-25T17:56:21;9.10;99.90
33825;DHT22;20127;48.962;8.342;2023-04-25T17:59:22;9.10;99.90
33825;DHT22;20127;48.962;8.342;2023-04-25T18:02:25;9.10;99.90
33825;DHT22;20127;48.962;8.342;2023-04-25T18:05:27;9.10;99.90
33825;DHT22;20127;48.962;8.342;2023-04-25T18:08:29;9.10;99.90
33825;DHT22;20127;48.962;8.342;2023-04-25T18:11:33;9.10;99.90
33825;DHT22;20127;48.962;8.342;2023-04-25T18:14:35;9.10;99.90
33825;DHT22;20127;48.962;8.342;2023-04-25T18:17:36;9.00;99.90
33825;DHT22;20127;48.962;8.342;2023-04-25T18:20:41;8.90;99.90
33825;DHT22;20127;48.962;8.342;2023-04-25T18:23:43;8.90;99.90
33825;DHT22;20127;48.962;8.342;2023-04-25T18:26:47;8.80;99.90
33825;DHT22;20127;48.962;8.342;2023-04-25T18:29:49;8.70;99.90
33825;DHT22;20127;48.962;8.342;2023-04-25T18:32:50;8.70;99.90
33825;DHT22;20127;48.962;8.342;2023-04-25T18:35:52;8.70;99.90
33825;DHT22;20127;48.962;8.342;2023-04-25T18:38:54;8.70;99.90
33825;DHT22;20127;48.962;8.342;2023-04-25T18:41:57;8.80;99.90
33825;DHT22;20127;48.962;8.342;2023-04-25T18:44:59;8.80;99.90
33825;DHT22;20127;48.962;8.342;2023-04-25T18:48:00;8.80;99.90
33825;DHT22;20127;48.962;8.342;2023-04-25T18:51:03;8.80;99.90
33825;DHT22;20127;48.962;8.342;2023-04-25T18:54:04;8.80;99.90
33825;DHT22;20127;48.962;8.342;2023-04-25T18:57:11;8.80;99.90
33825;DHT22;20127;48.962;8.342;2023-04-25T19:00:15;8.80;99.90
33825;DHT22;20127;48.962;8.342;2023-04-25T19:03:17;8.80;99.90
33825;DHT22;20127;48.962;8.342;2023-04-25T19:06:19;8.80;99.90
33825;DHT22;20127;48.962;8.342;2023-04-25T19:09:22;8.80;99.90
33825;DHT22;20127;48.962;8.342;2023-04-25T19:12:25;8.80;99.90
33825;DHT22;20127;48.962;8.342;2023-04-25T19:15:27;8.80;99.90
33825;DHT22;20127;48.962;8.342;2023-04-25T19:18:29;8.80;99.90
33825;DHT22;20127;48.962;8.342;2023-04-25T19:21:31;8.80;99.90
33825;DHT22;20127;48.962;8.342;2023-04-25T19:24:33;8.80;99.90
33825;DHT22;20127;48.962;8.342;2023-04-25T19:27:36;8.80;99.90
33825;DHT22;20127;48.962;8.342;2023-04-25T19:30:37;8.80;99.90